MQT25T CYYR-CYQB
Flight info
| Callsign | MQT25T |
|---|---|
| Flight time | 1h 40m |
| Altitude | 36000 |
| Route | ALKOB DCT YZV DCT MIVAX DCT SIMTO SIMTO4 |
| Aircraft | B738/M-SDE2E3FGHIRWXY/LB1 |
Departure
| Time | 2026-05-05 17:39 |
|---|---|
| Airport | Goose Bay Airport (CYYR) |
Arrival
| Time | 2026-05-05 19:19 |
|---|---|
| Airport | Quebec Jean Lesage International Airport (CYQB) |
| Time | Latitude | Longitude | Altitude | Speed | Heading |
|---|---|---|---|---|---|
| 2026-05-05 17:11 | 53.31214 | -60.41796 | 157 ft | 0 kts | 144° |
| 2026-05-05 17:33 | 53.31207 | -60.41798 | 157 ft | 2 kts | 187° |
| 2026-05-05 17:34 | 53.31202 | -60.41834 | 157 ft | 4 kts | 298° |
| 2026-05-05 17:34 | 53.31248 | -60.41878 | 157 ft | 12 kts | 335° |
| 2026-05-05 17:34 | 53.31348 | -60.41871 | 158 ft | 16 kts | 18° |
| 2026-05-05 17:34 | 53.31443 | -60.41778 | 161 ft | 16 kts | 44° |
| 2026-05-05 17:35 | 53.31508 | -60.41634 | 162 ft | 16 kts | 54° |
| 2026-05-05 17:35 | 53.31582 | -60.41466 | 162 ft | 18 kts | 55° |
| 2026-05-05 17:35 | 53.31592 | -60.41259 | 159 ft | 19 kts | 101° |
| 2026-05-05 17:35 | 53.31567 | -60.41046 | 155 ft | 19 kts | 100° |
| 2026-05-05 17:36 | 53.31546 | -60.40836 | 154 ft | 18 kts | 99° |
| 2026-05-05 17:36 | 53.31524 | -60.40640 | 153 ft | 16 kts | 92° |
| 2026-05-05 17:36 | 53.31592 | -60.40497 | 154 ft | 16 kts | 43° |
| 2026-05-05 17:36 | 53.31667 | -60.40369 | 155 ft | 16 kts | 30° |
| 2026-05-05 17:37 | 53.31768 | -60.40316 | 158 ft | 15 kts | 16° |
| 2026-05-05 17:37 | 53.31833 | -60.40289 | 158 ft | 15 kts | 13° |
| 2026-05-05 17:37 | 53.31970 | -60.40356 | 159 ft | 17 kts | 311° |
| 2026-05-05 17:37 | 53.32050 | -60.40501 | 161 ft | 17 kts | 314° |
| 2026-05-05 17:38 | 53.32103 | -60.40656 | 163 ft | 14 kts | 265° |
| 2026-05-05 17:38 | 53.32071 | -60.40753 | 164 ft | 21 kts | 235° |
| 2026-05-05 17:38 | 53.31811 | -60.41378 | 158 ft | 108 kts | 235° |
| 2026-05-05 17:38 | 53.31253 | -60.42739 | 329 ft | 167 kts | 236° |
| 2026-05-05 17:39 | 53.30549 | -60.44533 | 936 ft | 201 kts | 236° |
| 2026-05-05 17:39 | 53.29758 | -60.46642 | 1667 ft | 224 kts | 240° |
| 2026-05-05 17:39 | 53.28962 | -60.49015 | 2420 ft | 244 kts | 244° |
| 2026-05-05 17:39 | 53.28094 | -60.51560 | 3088 ft | 256 kts | 239° |
| 2026-05-05 17:40 | 53.27112 | -60.53997 | 3518 ft | 256 kts | 237° |
| 2026-05-05 17:40 | 53.25931 | -60.56263 | 4197 ft | 265 kts | 229° |
| 2026-05-05 17:40 | 53.24597 | -60.58494 | 4514 ft | 274 kts | 230° |
| 2026-05-05 17:40 | 53.23342 | -60.60851 | 5030 ft | 270 kts | 240° |
| 2026-05-05 17:41 | 53.22331 | -60.63489 | 5710 ft | 274 kts | 242° |
| 2026-05-05 17:41 | 53.21293 | -60.66181 | 6095 ft | 274 kts | 242° |
| 2026-05-05 17:41 | 53.20269 | -60.68779 | 7172 ft | 262 kts | 241° |
| 2026-05-05 17:41 | 53.19277 | -60.71246 | 8425 ft | 249 kts | 241° |
| 2026-05-05 17:42 | 53.18301 | -60.73641 | 9180 ft | 251 kts | 241° |
| 2026-05-05 17:42 | 53.17316 | -60.76037 | 9492 ft | 253 kts | 241° |
| 2026-05-05 17:42 | 53.16325 | -60.78428 | 9511 ft | 250 kts | 241° |
| 2026-05-05 17:42 | 53.15328 | -60.80821 | 9609 ft | 257 kts | 241° |
| 2026-05-05 17:43 | 53.14264 | -60.83377 | 9794 ft | 280 kts | 241° |
| 2026-05-05 17:43 | 53.13106 | -60.86153 | 9986 ft | 304 kts | 240° |
| 2026-05-05 17:43 | 53.11863 | -60.89109 | 10424 ft | 317 kts | 240° |
| 2026-05-05 17:43 | 53.10579 | -60.92139 | 11153 ft | 322 kts | 240° |
| 2026-05-05 17:44 | 53.09283 | -60.95187 | 11931 ft | 324 kts | 240° |
| 2026-05-05 17:44 | 53.07976 | -60.98261 | 12690 ft | 327 kts | 240° |
| 2026-05-05 17:44 | 53.06653 | -61.01373 | 13418 ft | 331 kts | 240° |
| 2026-05-05 17:44 | 53.05318 | -61.04513 | 14104 ft | 334 kts | 240° |
| 2026-05-05 17:45 | 53.03971 | -61.07677 | 14812 ft | 336 kts | 240° |
| 2026-05-05 17:45 | 53.02616 | -61.10856 | 15531 ft | 338 kts | 241° |
| 2026-05-05 17:45 | 53.01227 | -61.14035 | 16189 ft | 343 kts | 239° |
| 2026-05-05 17:45 | 52.99724 | -61.17140 | 16843 ft | 347 kts | 237° |
| 2026-05-05 17:46 | 52.98167 | -61.20218 | 17544 ft | 349 kts | 237° |
| 2026-05-05 17:46 | 52.96591 | -61.23299 | 18139 ft | 352 kts | 237° |
| 2026-05-05 17:46 | 52.95001 | -61.26407 | 18694 ft | 355 kts | 237° |
| 2026-05-05 17:46 | 52.93403 | -61.29539 | 19265 ft | 357 kts | 237° |
| 2026-05-05 17:47 | 52.91818 | -61.32653 | 19821 ft | 359 kts | 237° |
| 2026-05-05 17:47 | 52.90205 | -61.35827 | 20371 ft | 361 kts | 237° |
| 2026-05-05 17:47 | 52.88585 | -61.39020 | 20902 ft | 364 kts | 238° |
| 2026-05-05 17:47 | 52.86953 | -61.42237 | 21426 ft | 366 kts | 238° |
| 2026-05-05 17:48 | 52.85307 | -61.45478 | 21940 ft | 368 kts | 238° |
| 2026-05-05 17:48 | 52.83656 | -61.48729 | 22462 ft | 370 kts | 238° |
| 2026-05-05 17:48 | 52.81993 | -61.51997 | 22961 ft | 373 kts | 238° |
| 2026-05-05 17:48 | 52.80318 | -61.55287 | 23378 ft | 375 kts | 237° |
| 2026-05-05 17:49 | 52.78636 | -61.58585 | 23811 ft | 376 kts | 237° |
| 2026-05-05 17:49 | 52.76941 | -61.61904 | 24191 ft | 379 kts | 237° |
| 2026-05-05 17:49 | 52.75234 | -61.65245 | 24542 ft | 382 kts | 238° |
| 2026-05-05 17:49 | 52.73514 | -61.68605 | 24907 ft | 385 kts | 238° |
| 2026-05-05 17:50 | 52.71783 | -61.71983 | 25283 ft | 387 kts | 238° |
| 2026-05-05 17:50 | 52.70041 | -61.75377 | 25659 ft | 389 kts | 238° |
| 2026-05-05 17:50 | 52.68287 | -61.78789 | 26015 ft | 391 kts | 238° |
| 2026-05-05 17:50 | 52.66518 | -61.82227 | 26340 ft | 394 kts | 238° |
| 2026-05-05 17:51 | 52.64741 | -61.85676 | 26682 ft | 396 kts | 238° |
| 2026-05-05 17:51 | 52.62955 | -61.89135 | 27079 ft | 396 kts | 238° |
| 2026-05-05 17:51 | 52.61168 | -61.92589 | 27478 ft | 397 kts | 238° |
| 2026-05-05 17:51 | 52.59373 | -61.96056 | 27774 ft | 400 kts | 238° |
| 2026-05-05 17:52 | 52.57565 | -61.99548 | 28036 ft | 403 kts | 238° |
| 2026-05-05 17:52 | 52.55744 | -62.03057 | 28347 ft | 404 kts | 238° |
| 2026-05-05 17:52 | 52.53911 | -62.06584 | 28671 ft | 406 kts | 238° |
| 2026-05-05 17:52 | 52.52075 | -62.10110 | 29032 ft | 406 kts | 238° |
| 2026-05-05 17:53 | 52.50243 | -62.13621 | 29493 ft | 404 kts | 238° |
| 2026-05-05 17:53 | 52.48416 | -62.17116 | 29901 ft | 403 kts | 238° |
| 2026-05-05 17:53 | 52.46591 | -62.20604 | 30181 ft | 403 kts | 238° |
| 2026-05-05 17:53 | 52.44759 | -62.24107 | 30381 ft | 405 kts | 237° |
| 2026-05-05 17:54 | 52.42922 | -62.27615 | 30664 ft | 406 kts | 237° |
| 2026-05-05 17:54 | 52.41085 | -62.31116 | 30966 ft | 405 kts | 237° |
| 2026-05-05 17:54 | 52.39243 | -62.34620 | 31222 ft | 407 kts | 237° |
| 2026-05-05 17:54 | 52.37395 | -62.38132 | 31473 ft | 408 kts | 236° |
| 2026-05-05 17:55 | 52.35543 | -62.41647 | 31752 ft | 408 kts | 236° |
| 2026-05-05 17:55 | 52.33689 | -62.45160 | 32033 ft | 408 kts | 236° |
| 2026-05-05 17:55 | 52.32456 | -62.47493 | 32216 ft | 409 kts | 236° |
| 2026-05-05 17:55 | 52.29962 | -62.52208 | 32539 ft | 410 kts | 236° |
| 2026-05-05 17:56 | 52.28725 | -62.54541 | 32722 ft | 410 kts | 235° |
| 2026-05-05 17:56 | 52.26857 | -62.58062 | 32930 ft | 411 kts | 235° |
| 2026-05-05 17:56 | 52.24975 | -62.61608 | 33034 ft | 415 kts | 235° |
| 2026-05-05 17:56 | 52.23077 | -62.65178 | 33206 ft | 417 kts | 235° |
| 2026-05-05 17:57 | 52.21177 | -62.68743 | 33530 ft | 416 kts | 234° |
| 2026-05-05 17:57 | 52.19280 | -62.72297 | 33777 ft | 416 kts | 234° |
| 2026-05-05 17:57 | 52.17377 | -62.75859 | 33919 ft | 418 kts | 234° |
| 2026-05-05 17:57 | 52.15460 | -62.79442 | 34086 ft | 419 kts | 234° |
| 2026-05-05 17:58 | 52.13541 | -62.83023 | 34298 ft | 420 kts | 234° |
| 2026-05-05 17:58 | 52.11623 | -62.86598 | 34494 ft | 420 kts | 233° |
| 2026-05-05 17:58 | 52.09696 | -62.90183 | 34651 ft | 422 kts | 233° |
| 2026-05-05 17:58 | 52.07762 | -62.93778 | 34763 ft | 423 kts | 233° |
| 2026-05-05 17:59 | 52.05821 | -62.97382 | 34949 ft | 424 kts | 233° |
| 2026-05-05 17:59 | 52.03876 | -63.00985 | 35155 ft | 424 kts | 233° |
| 2026-05-05 17:59 | 52.01929 | -63.04587 | 35339 ft | 425 kts | 232° |
| 2026-05-05 17:59 | 51.99973 | -63.08202 | 35492 ft | 426 kts | 232° |
| 2026-05-05 18:00 | 51.98012 | -63.11820 | 35575 ft | 428 kts | 232° |
| 2026-05-05 18:00 | 51.94081 | -63.19059 | 35596 ft | 427 kts | 232° |
| 2026-05-05 18:01 | 51.90162 | -63.26250 | 35576 ft | 424 kts | 232° |
| 2026-05-05 18:01 | 51.86267 | -63.33379 | 35586 ft | 421 kts | 232° |
| 2026-05-05 18:02 | 51.82389 | -63.40459 | 35586 ft | 419 kts | 232° |
| 2026-05-05 18:02 | 51.78525 | -63.47495 | 35595 ft | 418 kts | 232° |
| 2026-05-05 18:03 | 51.74658 | -63.54517 | 35596 ft | 418 kts | 232° |
| 2026-05-05 18:03 | 51.70811 | -63.61483 | 35597 ft | 418 kts | 232° |
| 2026-05-05 18:04 | 51.66935 | -63.68481 | 35590 ft | 418 kts | 232° |
| 2026-05-05 18:04 | 51.63056 | -63.75465 | 35596 ft | 418 kts | 232° |
| 2026-05-05 18:05 | 51.59177 | -63.82430 | 35598 ft | 418 kts | 232° |
| 2026-05-05 18:05 | 51.55296 | -63.89379 | 35599 ft | 417 kts | 232° |
| 2026-05-05 18:06 | 51.51425 | -63.96295 | 35590 ft | 415 kts | 232° |
| 2026-05-05 18:06 | 51.47582 | -64.03144 | 35592 ft | 411 kts | 233° |
| 2026-05-05 18:07 | 51.43864 | -64.10053 | 35596 ft | 407 kts | 234° |
| 2026-05-05 18:07 | 51.40212 | -64.16959 | 35591 ft | 405 kts | 234° |
| 2026-05-05 18:08 | 51.36571 | -64.23810 | 35599 ft | 403 kts | 234° |
| 2026-05-05 18:08 | 51.32945 | -64.30593 | 35597 ft | 401 kts | 233° |
| 2026-05-05 18:09 | 51.29317 | -64.37350 | 35620 ft | 400 kts | 233° |
| 2026-05-05 18:09 | 51.25719 | -64.44032 | 35606 ft | 399 kts | 233° |
| 2026-05-05 18:10 | 51.22104 | -64.50725 | 35607 ft | 398 kts | 233° |
| 2026-05-05 18:10 | 51.18488 | -64.57402 | 35604 ft | 397 kts | 233° |
| 2026-05-05 18:11 | 51.14877 | -64.64056 | 35598 ft | 397 kts | 233° |
| 2026-05-05 18:11 | 51.11266 | -64.70692 | 35605 ft | 397 kts | 233° |
| 2026-05-05 18:12 | 51.07647 | -64.77324 | 35604 ft | 397 kts | 233° |
| 2026-05-05 18:12 | 51.04024 | -64.83947 | 35605 ft | 397 kts | 232° |
| 2026-05-05 18:13 | 51.00394 | -64.90565 | 35601 ft | 397 kts | 232° |
| 2026-05-05 18:13 | 50.96762 | -64.97168 | 35608 ft | 397 kts | 232° |
| 2026-05-05 18:14 | 50.93124 | -65.03768 | 35614 ft | 397 kts | 232° |
| 2026-05-05 18:14 | 50.89479 | -65.10362 | 35610 ft | 398 kts | 232° |
| 2026-05-05 18:15 | 50.85824 | -65.16957 | 35617 ft | 398 kts | 232° |
| 2026-05-05 18:15 | 50.82165 | -65.23542 | 35619 ft | 399 kts | 232° |
| 2026-05-05 18:16 | 50.78497 | -65.30127 | 35614 ft | 399 kts | 232° |
| 2026-05-05 18:16 | 50.74826 | -65.36697 | 35625 ft | 399 kts | 232° |
| 2026-05-05 18:17 | 50.71154 | -65.43256 | 35620 ft | 398 kts | 232° |
| 2026-05-05 18:17 | 50.67482 | -65.49796 | 35621 ft | 398 kts | 232° |
| 2026-05-05 18:18 | 50.63804 | -65.56332 | 35606 ft | 398 kts | 232° |
| 2026-05-05 18:18 | 50.60124 | -65.62854 | 35620 ft | 398 kts | 232° |
| 2026-05-05 18:19 | 50.56443 | -65.69360 | 35624 ft | 398 kts | 232° |
| 2026-05-05 18:19 | 50.52763 | -65.75848 | 35622 ft | 397 kts | 232° |
| 2026-05-05 18:20 | 50.49083 | -65.82321 | 35626 ft | 397 kts | 232° |
| 2026-05-05 18:20 | 50.45406 | -65.88771 | 35600 ft | 396 kts | 232° |
| 2026-05-05 18:21 | 50.41756 | -65.95160 | 35613 ft | 395 kts | 231° |
| 2026-05-05 18:21 | 50.38086 | -66.01566 | 35617 ft | 395 kts | 231° |
| 2026-05-05 18:22 | 50.34416 | -66.07958 | 35609 ft | 395 kts | 231° |
| 2026-05-05 18:22 | 50.30739 | -66.14345 | 35606 ft | 395 kts | 231° |
| 2026-05-05 18:23 | 50.27061 | -66.20724 | 35591 ft | 395 kts | 231° |
| 2026-05-05 18:23 | 50.23374 | -66.27088 | 35600 ft | 395 kts | 230° |
| 2026-05-05 18:24 | 50.19462 | -66.33148 | 35598 ft | 397 kts | 227° |
| 2026-05-05 18:24 | 50.15466 | -66.39084 | 35604 ft | 397 kts | 227° |
| 2026-05-05 18:25 | 50.11470 | -66.45020 | 35604 ft | 397 kts | 227° |
| 2026-05-05 18:25 | 50.07483 | -66.50959 | 35606 ft | 396 kts | 227° |
| 2026-05-05 18:26 | 50.03499 | -66.56893 | 35620 ft | 397 kts | 227° |
| 2026-05-05 18:26 | 49.99512 | -66.62825 | 35602 ft | 397 kts | 227° |
| 2026-05-05 18:27 | 49.95522 | -66.68744 | 35601 ft | 396 kts | 227° |
| 2026-05-05 18:27 | 49.91539 | -66.74641 | 35602 ft | 396 kts | 227° |
| 2026-05-05 18:28 | 49.85573 | -66.83445 | 35591 ft | 394 kts | 227° |
| 2026-05-05 18:28 | 49.81597 | -66.89295 | 35587 ft | 394 kts | 227° |
| 2026-05-05 18:29 | 49.77627 | -66.95123 | 35593 ft | 393 kts | 227° |
| 2026-05-05 18:29 | 49.73683 | -67.00898 | 35586 ft | 393 kts | 227° |
| 2026-05-05 18:30 | 49.69718 | -67.06691 | 35574 ft | 392 kts | 227° |
| 2026-05-05 18:30 | 49.65756 | -67.12466 | 35577 ft | 391 kts | 227° |
| 2026-05-05 18:31 | 49.61792 | -67.18230 | 35576 ft | 392 kts | 227° |
| 2026-05-05 18:31 | 49.57824 | -67.23986 | 35574 ft | 392 kts | 226° |
| 2026-05-05 18:32 | 49.53852 | -67.29735 | 35553 ft | 392 kts | 226° |
| 2026-05-05 18:32 | 49.49876 | -67.35477 | 35566 ft | 392 kts | 226° |
| 2026-05-05 18:33 | 49.45896 | -67.41210 | 35569 ft | 392 kts | 226° |
| 2026-05-05 18:33 | 49.41910 | -67.46939 | 35565 ft | 392 kts | 226° |
| 2026-05-05 18:34 | 49.37920 | -67.52660 | 35559 ft | 393 kts | 226° |
| 2026-05-05 18:34 | 49.33927 | -67.58371 | 35551 ft | 392 kts | 226° |
| 2026-05-05 18:35 | 49.29933 | -67.64070 | 35547 ft | 392 kts | 226° |
| 2026-05-05 18:35 | 49.25940 | -67.69757 | 35561 ft | 392 kts | 226° |
| 2026-05-05 18:36 | 49.21947 | -67.75429 | 35586 ft | 392 kts | 226° |
| 2026-05-05 18:36 | 49.17947 | -67.81098 | 35563 ft | 391 kts | 226° |
| 2026-05-05 18:37 | 49.13957 | -67.86739 | 35544 ft | 390 kts | 226° |
| 2026-05-05 18:37 | 49.09979 | -67.92351 | 35549 ft | 389 kts | 226° |
| 2026-05-05 18:38 | 49.06011 | -67.97936 | 35550 ft | 388 kts | 225° |
| 2026-05-05 18:38 | 49.02047 | -68.03504 | 35551 ft | 387 kts | 225° |
| 2026-05-05 18:39 | 48.98091 | -68.09047 | 35549 ft | 386 kts | 225° |
| 2026-05-05 18:39 | 48.94163 | -68.14538 | 35553 ft | 386 kts | 225° |
| 2026-05-05 18:40 | 48.90210 | -68.20053 | 35552 ft | 386 kts | 225° |
| 2026-05-05 18:40 | 48.86224 | -68.25601 | 35564 ft | 386 kts | 225° |
| 2026-05-05 18:41 | 48.82283 | -68.31074 | 35560 ft | 387 kts | 225° |
| 2026-05-05 18:41 | 48.78305 | -68.36585 | 35555 ft | 388 kts | 225° |
| 2026-05-05 18:42 | 48.74320 | -68.42094 | 35553 ft | 388 kts | 225° |
| 2026-05-05 18:42 | 48.70329 | -68.47599 | 35563 ft | 388 kts | 225° |
| 2026-05-05 18:43 | 48.66334 | -68.53097 | 35555 ft | 388 kts | 225° |
| 2026-05-05 18:43 | 48.62334 | -68.58590 | 35530 ft | 388 kts | 225° |
| 2026-05-05 18:44 | 48.58337 | -68.64066 | 35549 ft | 388 kts | 225° |
| 2026-05-05 18:44 | 48.54337 | -68.69534 | 35557 ft | 388 kts | 225° |
| 2026-05-05 18:45 | 48.51009 | -68.74074 | 35558 ft | 388 kts | 225° |
| 2026-05-05 18:45 | 48.47005 | -68.79526 | 35558 ft | 388 kts | 225° |
| 2026-05-05 18:46 | 48.42997 | -68.84970 | 35543 ft | 388 kts | 225° |
| 2026-05-05 18:46 | 48.38982 | -68.90413 | 35558 ft | 388 kts | 225° |
| 2026-05-05 18:47 | 48.34964 | -68.95847 | 35553 ft | 389 kts | 225° |
| 2026-05-05 18:47 | 48.30939 | -69.01279 | 35552 ft | 389 kts | 225° |
| 2026-05-05 18:48 | 48.26912 | -69.06701 | 35559 ft | 389 kts | 224° |
| 2026-05-05 18:48 | 48.22878 | -69.12121 | 35549 ft | 389 kts | 224° |
| 2026-05-05 18:49 | 48.18871 | -69.17492 | 35559 ft | 389 kts | 224° |
| 2026-05-05 18:49 | 48.16845 | -69.20206 | 35182 ft | 395 kts | 224° |
| 2026-05-05 18:49 | 48.14801 | -69.22939 | 34684 ft | 393 kts | 224° |
| 2026-05-05 18:50 | 48.12775 | -69.25642 | 34155 ft | 387 kts | 224° |
| 2026-05-05 18:50 | 48.10770 | -69.28314 | 33488 ft | 386 kts | 225° |
| 2026-05-05 18:50 | 48.08775 | -69.30972 | 32887 ft | 382 kts | 225° |
| 2026-05-05 18:50 | 48.06804 | -69.33595 | 32384 ft | 377 kts | 225° |
| 2026-05-05 18:51 | 48.04861 | -69.36176 | 31937 ft | 371 kts | 225° |
| 2026-05-05 18:51 | 48.02946 | -69.38719 | 31486 ft | 366 kts | 225° |
| 2026-05-05 18:51 | 48.01051 | -69.41233 | 31044 ft | 362 kts | 224° |
| 2026-05-05 18:51 | 47.99181 | -69.43713 | 30601 ft | 358 kts | 224° |
| 2026-05-05 18:52 | 47.97330 | -69.46165 | 30164 ft | 354 kts | 224° |
| 2026-05-05 18:52 | 47.95495 | -69.48593 | 29739 ft | 351 kts | 224° |
| 2026-05-05 18:52 | 47.93678 | -69.50995 | 29265 ft | 347 kts | 224° |
| 2026-05-05 18:52 | 47.91883 | -69.53363 | 28839 ft | 342 kts | 224° |
| 2026-05-05 18:53 | 47.90112 | -69.55699 | 28415 ft | 338 kts | 224° |
| 2026-05-05 18:53 | 47.88359 | -69.58009 | 27968 ft | 334 kts | 224° |
| 2026-05-05 18:53 | 47.86629 | -69.60287 | 27553 ft | 330 kts | 225° |
| 2026-05-05 18:53 | 47.84917 | -69.62538 | 27140 ft | 327 kts | 225° |
| 2026-05-05 18:54 | 47.83207 | -69.64788 | 26728 ft | 331 kts | 225° |
| 2026-05-05 18:54 | 47.81447 | -69.67105 | 26310 ft | 344 kts | 225° |
| 2026-05-05 18:54 | 47.79645 | -69.69473 | 25857 ft | 345 kts | 225° |
| 2026-05-05 18:54 | 47.77852 | -69.71821 | 25417 ft | 342 kts | 225° |
| 2026-05-05 18:55 | 47.76076 | -69.74142 | 24973 ft | 339 kts | 225° |
| 2026-05-05 18:55 | 47.74313 | -69.76446 | 24553 ft | 336 kts | 225° |
| 2026-05-05 18:55 | 47.72568 | -69.78725 | 24135 ft | 333 kts | 225° |
| 2026-05-05 18:55 | 47.70835 | -69.80987 | 23711 ft | 330 kts | 225° |
| 2026-05-05 18:56 | 47.69116 | -69.83229 | 23308 ft | 328 kts | 225° |
| 2026-05-05 18:56 | 47.67406 | -69.85457 | 22857 ft | 326 kts | 225° |
| 2026-05-05 18:56 | 47.65708 | -69.87668 | 22411 ft | 323 kts | 225° |
| 2026-05-05 18:56 | 47.64026 | -69.89857 | 22010 ft | 320 kts | 225° |
| 2026-05-05 18:57 | 47.62361 | -69.92021 | 21631 ft | 317 kts | 225° |
| 2026-05-05 18:57 | 47.60730 | -69.94139 | 21231 ft | 314 kts | 225° |
| 2026-05-05 18:57 | 47.59098 | -69.96257 | 20823 ft | 311 kts | 225° |
| 2026-05-05 18:57 | 47.57476 | -69.98359 | 20437 ft | 309 kts | 225° |
| 2026-05-05 18:58 | 47.55865 | -70.00447 | 20050 ft | 306 kts | 225° |
| 2026-05-05 18:58 | 47.54269 | -70.02514 | 19656 ft | 304 kts | 225° |
| 2026-05-05 18:58 | 47.52682 | -70.04566 | 19275 ft | 302 kts | 224° |
| 2026-05-05 18:58 | 47.51107 | -70.06604 | 18892 ft | 300 kts | 224° |
| 2026-05-05 18:59 | 47.49540 | -70.08628 | 18522 ft | 298 kts | 224° |
| 2026-05-05 18:59 | 47.47982 | -70.10639 | 18150 ft | 297 kts | 224° |
| 2026-05-05 18:59 | 47.46429 | -70.12640 | 17773 ft | 296 kts | 224° |
| 2026-05-05 18:59 | 47.44880 | -70.14633 | 17356 ft | 295 kts | 224° |
| 2026-05-05 19:00 | 47.43408 | -70.16704 | 16905 ft | 292 kts | 230° |
| 2026-05-05 19:00 | 47.42085 | -70.19007 | 16437 ft | 293 kts | 232° |
| 2026-05-05 19:00 | 47.40789 | -70.21316 | 16106 ft | 290 kts | 232° |
| 2026-05-05 19:00 | 47.39510 | -70.23594 | 15848 ft | 288 kts | 232° |
| 2026-05-05 19:01 | 47.38219 | -70.25891 | 15609 ft | 293 kts | 232° |
| 2026-05-05 19:01 | 47.36917 | -70.28202 | 15315 ft | 292 kts | 232° |
| 2026-05-05 19:01 | 47.35624 | -70.30488 | 14942 ft | 289 kts | 232° |
| 2026-05-05 19:01 | 47.34343 | -70.32749 | 14586 ft | 287 kts | 232° |
| 2026-05-05 19:02 | 47.33068 | -70.34995 | 14221 ft | 285 kts | 232° |
| 2026-05-05 19:02 | 47.31796 | -70.37233 | 13857 ft | 284 kts | 232° |
| 2026-05-05 19:02 | 47.30532 | -70.39454 | 13495 ft | 282 kts | 232° |
| 2026-05-05 19:02 | 47.29273 | -70.41665 | 13110 ft | 281 kts | 232° |
| 2026-05-05 19:03 | 47.28021 | -70.43862 | 12756 ft | 279 kts | 232° |
| 2026-05-05 19:03 | 47.26780 | -70.46037 | 12404 ft | 276 kts | 232° |
| 2026-05-05 19:03 | 47.25548 | -70.48195 | 12041 ft | 275 kts | 232° |
| 2026-05-05 19:03 | 47.24322 | -70.50339 | 11692 ft | 273 kts | 232° |
| 2026-05-05 19:04 | 47.23101 | -70.52475 | 11332 ft | 272 kts | 232° |
| 2026-05-05 19:04 | 47.21884 | -70.54601 | 11063 ft | 271 kts | 232° |
| 2026-05-05 19:04 | 47.20665 | -70.56729 | 10756 ft | 273 kts | 232° |
| 2026-05-05 19:04 | 47.19436 | -70.58873 | 10466 ft | 275 kts | 232° |
| 2026-05-05 19:05 | 47.18199 | -70.61031 | 10177 ft | 277 kts | 232° |
| 2026-05-05 19:05 | 47.16960 | -70.63187 | 9882 ft | 273 kts | 232° |
| 2026-05-05 19:05 | 47.15760 | -70.65274 | 9586 ft | 262 kts | 232° |
| 2026-05-05 19:05 | 47.14603 | -70.67284 | 9271 ft | 253 kts | 232° |
| 2026-05-05 19:06 | 47.13501 | -70.69198 | 8950 ft | 245 kts | 232° |
| 2026-05-05 19:06 | 47.12417 | -70.71082 | 8626 ft | 239 kts | 232° |
| 2026-05-05 19:06 | 47.11359 | -70.72918 | 8376 ft | 233 kts | 232° |
| 2026-05-05 19:06 | 47.10320 | -70.74723 | 8043 ft | 229 kts | 232° |
| 2026-05-05 19:07 | 47.09305 | -70.76483 | 7748 ft | 224 kts | 232° |
| 2026-05-05 19:07 | 47.08306 | -70.78212 | 7439 ft | 221 kts | 232° |
| 2026-05-05 19:07 | 47.07322 | -70.79915 | 7129 ft | 217 kts | 232° |
| 2026-05-05 19:07 | 47.06355 | -70.81586 | 6826 ft | 212 kts | 232° |
| 2026-05-05 19:08 | 47.05454 | -70.83268 | 6527 ft | 208 kts | 240° |
| 2026-05-05 19:08 | 47.04818 | -70.85141 | 6243 ft | 203 kts | 245° |
| 2026-05-05 19:08 | 47.04222 | -70.87006 | 5952 ft | 200 kts | 244° |
| 2026-05-05 19:08 | 47.03633 | -70.88838 | 5628 ft | 198 kts | 244° |
| 2026-05-05 19:09 | 47.03050 | -70.90647 | 5317 ft | 195 kts | 244° |
| 2026-05-05 19:09 | 47.02472 | -70.92431 | 5007 ft | 193 kts | 244° |
| 2026-05-05 19:09 | 47.01904 | -70.94178 | 4741 ft | 187 kts | 244° |
| 2026-05-05 19:09 | 47.01349 | -70.95881 | 4470 ft | 184 kts | 244° |
| 2026-05-05 19:10 | 47.00802 | -70.97556 | 4167 ft | 181 kts | 244° |
| 2026-05-05 19:10 | 47.00253 | -70.99235 | 4097 ft | 185 kts | 244° |
| 2026-05-05 19:10 | 46.99694 | -71.00943 | 4045 ft | 186 kts | 244° |
| 2026-05-05 19:10 | 46.99142 | -71.02627 | 4033 ft | 182 kts | 244° |
| 2026-05-05 19:11 | 46.98599 | -71.04285 | 4039 ft | 178 kts | 244° |
| 2026-05-05 19:11 | 46.98080 | -71.05866 | 4024 ft | 165 kts | 244° |
| 2026-05-05 19:11 | 46.97603 | -71.07322 | 4024 ft | 155 kts | 243° |
| 2026-05-05 19:11 | 46.97135 | -71.08745 | 4029 ft | 155 kts | 244° |
| 2026-05-05 19:12 | 46.96665 | -71.10171 | 4027 ft | 156 kts | 244° |
| 2026-05-05 19:12 | 46.96196 | -71.11596 | 4045 ft | 155 kts | 244° |
| 2026-05-05 19:12 | 46.95727 | -71.13019 | 4045 ft | 155 kts | 244° |
| 2026-05-05 19:12 | 46.95261 | -71.14431 | 4032 ft | 153 kts | 244° |
| 2026-05-05 19:13 | 46.94803 | -71.15819 | 4028 ft | 150 kts | 244° |
| 2026-05-05 19:13 | 46.94365 | -71.17138 | 4022 ft | 138 kts | 242° |
| 2026-05-05 19:13 | 46.93769 | -71.18204 | 4056 ft | 136 kts | 230° |
| 2026-05-05 19:13 | 46.93089 | -71.19236 | 3965 ft | 146 kts | 229° |
| 2026-05-05 19:14 | 46.92380 | -71.20275 | 3780 ft | 139 kts | 228° |
| 2026-05-05 19:14 | 46.91715 | -71.21235 | 3579 ft | 130 kts | 228° |
| 2026-05-05 19:14 | 46.91094 | -71.22128 | 3405 ft | 123 kts | 227° |
| 2026-05-05 19:14 | 46.90460 | -71.23043 | 3261 ft | 130 kts | 228° |
| 2026-05-05 19:15 | 46.89820 | -71.23963 | 3068 ft | 128 kts | 228° |
| 2026-05-05 19:15 | 46.89211 | -71.24839 | 2894 ft | 118 kts | 228° |
| 2026-05-05 19:15 | 46.88623 | -71.25686 | 2720 ft | 119 kts | 227° |
| 2026-05-05 19:15 | 46.88032 | -71.26535 | 2538 ft | 119 kts | 227° |
| 2026-05-05 19:16 | 46.87440 | -71.27389 | 2386 ft | 121 kts | 227° |
| 2026-05-05 19:16 | 46.86838 | -71.28255 | 2207 ft | 121 kts | 227° |
| 2026-05-05 19:16 | 46.86252 | -71.29099 | 2055 ft | 121 kts | 226° |
| 2026-05-05 19:16 | 46.85636 | -71.29989 | 1885 ft | 125 kts | 226° |
| 2026-05-05 19:17 | 46.85026 | -71.30866 | 1702 ft | 125 kts | 226° |
| 2026-05-05 19:17 | 46.84391 | -71.31779 | 1534 ft | 131 kts | 226° |
| 2026-05-05 19:17 | 46.83750 | -71.32706 | 1348 ft | 129 kts | 224° |
| 2026-05-05 19:17 | 46.83123 | -71.33633 | 1138 ft | 129 kts | 225° |
| 2026-05-05 19:18 | 46.82472 | -71.34516 | 997 ft | 127 kts | 226° |
| 2026-05-05 19:18 | 46.81840 | -71.35463 | 846 ft | 136 kts | 226° |
| 2026-05-05 19:18 | 46.81132 | -71.36484 | 619 ft | 149 kts | 225° |
| 2026-05-05 19:18 | 46.80379 | -71.37590 | 414 ft | 159 kts | 223° |
| 2026-05-05 19:19 | 46.79582 | -71.38713 | 266 ft | 155 kts | 224° |
| 2026-05-05 19:19 | 46.78882 | -71.39713 | 249 ft | 123 kts | 224° |
| 2026-05-05 19:19 | 46.78592 | -71.40132 | 246 ft | 19 kts | 214° |
| 2026-05-05 19:19 | 46.78495 | -71.40070 | 244 ft | 14 kts | 111° |
| 2026-05-05 19:20 | 46.78490 | -71.39966 | 243 ft | 7 kts | 89° |
| 2026-05-05 19:20 | 46.78493 | -71.39902 | 243 ft | 6 kts | 83° |
| 2026-05-05 19:20 | 46.78508 | -71.39843 | 243 ft | 7 kts | 58° |
| 2026-05-05 19:20 | 46.78562 | -71.39760 | 243 ft | 15 kts | 45° |
| 2026-05-05 19:21 | 46.78644 | -71.39640 | 243 ft | 19 kts | 45° |
| 2026-05-05 19:21 | 46.78727 | -71.39521 | 243 ft | 16 kts | 44° |
| 2026-05-05 19:21 | 46.78801 | -71.39422 | 245 ft | 12 kts | 33° |
| 2026-05-05 19:21 | 46.78879 | -71.39345 | 243 ft | 15 kts | 37° |
| 2026-05-05 19:22 | 46.78968 | -71.39238 | 243 ft | 17 kts | 44° |
| 2026-05-05 19:22 | 46.79056 | -71.39114 | 243 ft | 18 kts | 44° |
| 2026-05-05 19:22 | 46.79151 | -71.38974 | 243 ft | 20 kts | 46° |
| 2026-05-05 19:22 | 46.79252 | -71.38827 | 243 ft | 19 kts | 45° |
| 2026-05-05 19:23 | 46.79342 | -71.38702 | 243 ft | 16 kts | 43° |
| 2026-05-05 19:23 | 46.79388 | -71.38636 | 243 ft | 0 kts | 45° |
| 2026-05-05 19:23 | 46.79395 | -71.38580 | 243 ft | 10 kts | 110° |
| 2026-05-05 19:24 | 46.79347 | -71.38551 | 243 ft | 8 kts | 188° |
| 2026-05-05 19:24 | 46.79295 | -71.38565 | 243 ft | 5 kts | 191° |
| 2026-05-05 19:24 | 46.79269 | -71.38532 | 243 ft | 5 kts | 110° |
| 2026-05-05 19:24 | 46.79260 | -71.38478 | 242 ft | 5 kts | 102° |
| 2026-05-05 19:25 | 46.79258 | -71.38463 | 243 ft | 0 kts | 101° |